sensor_id;sensor_type;location;lat;lon;timestamp;P1;durP1;ratioP1;P2;durP2;ratioP2
77174;SDS011;66153;53.488;10.244;2023-03-14T00:01:54;3.72;;;2.47;;
77174;SDS011;66153;53.488;10.244;2023-03-14T00:04:20;4.85;;;2.30;;
77174;SDS011;66153;53.488;10.244;2023-03-14T00:06:46;6.40;;;2.65;;
77174;SDS011;66153;53.488;10.244;2023-03-14T00:09:13;4.13;;;2.67;;
77174;SDS011;66153;53.488;10.244;2023-03-14T00:11:39;4.45;;;2.70;;
77174;SDS011;66153;53.488;10.244;2023-03-14T00:14:05;3.80;;;2.05;;
77174;SDS011;66153;53.488;10.244;2023-03-14T00:16:31;4.43;;;2.83;;
77174;SDS011;66153;53.488;10.244;2023-03-14T00:19:00;4.75;;;2.42;;
77174;SDS011;66153;53.488;10.244;2023-03-14T00:21:26;6.25;;;2.47;;
77174;SDS011;66153;53.488;10.244;2023-03-14T00:23:53;6.38;;;1.90;;
77174;SDS011;66153;53.488;10.244;2023-03-14T00:26:19;5.10;;;2.40;;
77174;SDS011;66153;53.488;10.244;2023-03-14T00:31:13;4.07;;;2.30;;
77174;SDS011;66153;53.488;10.244;2023-03-14T00:33:39;4.70;;;2.20;;
77174;SDS011;66153;53.488;10.244;2023-03-14T00:36:06;6.07;;;2.35;;
77174;SDS011;66153;53.488;10.244;2023-03-14T00:38:34;7.55;;;2.33;;
77174;SDS011;66153;53.488;10.244;2023-03-14T00:41:02;4.88;;;2.47;;
77174;SDS011;66153;53.488;10.244;2023-03-14T00:43:28;5.90;;;2.50;;
77174;SDS011;66153;53.488;10.244;2023-03-14T00:45:55;6.82;;;2.92;;
77174;SDS011;66153;53.488;10.244;2023-03-14T00:50:48;5.25;;;2.50;;
77174;SDS011;66153;53.488;10.244;2023-03-14T00:53:14;6.85;;;3.17;;
77174;SDS011;66153;53.488;10.244;2023-03-14T00:55:40;5.60;;;2.30;;
77174;SDS011;66153;53.488;10.244;2023-03-14T01:00:33;4.93;;;2.30;;
77174;SDS011;66153;53.488;10.244;2023-03-14T01:02:59;7.97;;;3.30;;
77174;SDS011;66153;53.488;10.244;2023-03-14T01:05:25;4.60;;;2.47;;
77174;SDS011;66153;53.488;10.244;2023-03-14T01:07:51;8.20;;;3.17;;
77174;SDS011;66153;53.488;10.244;2023-03-14T01:10:17;5.15;;;2.28;;
77174;SDS011;66153;53.488;10.244;2023-03-14T01:12:43;5.90;;;2.88;;
77174;SDS011;66153;53.488;10.244;2023-03-14T01:15:09;4.70;;;2.50;;
77174;SDS011;66153;53.488;10.244;2023-03-14T01:17:36;5.88;;;2.80;;
77174;SDS011;66153;53.488;10.244;2023-03-14T01:20:04;6.85;;;2.53;;
77174;SDS011;66153;53.488;10.244;2023-03-14T01:22:34;6.20;;;2.53;;
77174;SDS011;66153;53.488;10.244;2023-03-14T01:25:00;5.80;;;2.70;;
77174;SDS011;66153;53.488;10.244;2023-03-14T01:27:26;4.78;;;2.33;;
77174;SDS011;66153;53.488;10.244;2023-03-14T01:29:52;3.67;;;2.13;;
77174;SDS011;66153;53.488;10.244;2023-03-14T01:32:18;6.63;;;2.10;;
77174;SDS011;66153;53.488;10.244;2023-03-14T01:34:44;5.57;;;2.38;;
77174;SDS011;66153;53.488;10.244;2023-03-14T01:37:10;6.18;;;2.50;;
77174;SDS011;66153;53.488;10.244;2023-03-14T01:39:37;5.50;;;2.28;;
77174;SDS011;66153;53.488;10.244;2023-03-14T01:42:03;5.43;;;2.25;;
77174;SDS011;66153;53.488;10.244;2023-03-14T01:44:46;5.90;;;2.53;;
77174;SDS011;66153;53.488;10.244;2023-03-14T01:47:12;5.72;;;2.78;;
77174;SDS011;66153;53.488;10.244;2023-03-14T01:49:38;5.53;;;2.38;;
77174;SDS011;66153;53.488;10.244;2023-03-14T01:52:06;5.22;;;2.35;;
77174;SDS011;66153;53.488;10.244;2023-03-14T01:54:43;7.53;;;2.90;;
77174;SDS011;66153;53.488;10.244;2023-03-14T01:57:29;6.03;;;2.58;;
77174;SDS011;66153;53.488;10.244;2023-03-14T02:00:00;9.23;;;3.47;;
77174;SDS011;66153;53.488;10.244;2023-03-14T02:02:27;5.40;;;2.80;;
77174;SDS011;66153;53.488;10.244;2023-03-14T02:04:54;7.57;;;2.75;;
77174;SDS011;66153;53.488;10.244;2023-03-14T02:09:46;7.28;;;2.63;;
77174;SDS011;66153;53.488;10.244;2023-03-14T02:14:39;4.22;;;2.40;;
77174;SDS011;66153;53.488;10.244;2023-03-14T02:17:11;5.57;;;2.38;;
77174;SDS011;66153;53.488;10.244;2023-03-14T02:19:45;3.63;;;1.90;;
77174;SDS011;66153;53.488;10.244;2023-03-14T02:22:14;5.75;;;2.60;;
77174;SDS011;66153;53.488;10.244;2023-03-14T02:29:33;6.47;;;2.35;;
77174;SDS011;66153;53.488;10.244;2023-03-14T02:32:00;5.32;;;2.47;;
77174;SDS011;66153;53.488;10.244;2023-03-14T02:34:26;5.78;;;2.40;;
77174;SDS011;66153;53.488;10.244;2023-03-14T02:36:52;6.70;;;2.10;;
77174;SDS011;66153;53.488;10.244;2023-03-14T02:39:20;6.78;;;2.17;;
77174;SDS011;66153;53.488;10.244;2023-03-14T02:41:48;5.53;;;2.10;;
77174;SDS011;66153;53.488;10.244;2023-03-14T02:44:14;6.45;;;2.40;;
77174;SDS011;66153;53.488;10.244;2023-03-14T02:46:40;6.80;;;2.55;;
77174;SDS011;66153;53.488;10.244;2023-03-14T02:49:08;5.20;;;2.33;;
77174;SDS011;66153;53.488;10.244;2023-03-14T02:51:36;6.90;;;2.78;;
77174;SDS011;66153;53.488;10.244;2023-03-14T02:54:02;7.28;;;2.72;;
77174;SDS011;66153;53.488;10.244;2023-03-14T02:56:29;6.47;;;2.47;;
77174;SDS011;66153;53.488;10.244;2023-03-14T02:58:55;6.57;;;2.65;;
77174;SDS011;66153;53.488;10.244;2023-03-14T03:01:22;7.30;;;2.70;;
77174;SDS011;66153;53.488;10.244;2023-03-14T03:03:48;5.35;;;2.53;;
77174;SDS011;66153;53.488;10.244;2023-03-14T03:06:14;7.55;;;2.55;;
77174;SDS011;66153;53.488;10.244;2023-03-14T03:08:40;4.88;;;2.20;;
77174;SDS011;66153;53.488;10.244;2023-03-14T03:11:06;7.68;;;2.42;;
77174;SDS011;66153;53.488;10.244;2023-03-14T03:13:33;6.10;;;2.25;;
77174;SDS011;66153;53.488;10.244;2023-03-14T03:15:59;5.03;;;2.20;;
77174;SDS011;66153;53.488;10.244;2023-03-14T03:18:25;5.72;;;2.20;;
77174;SDS011;66153;53.488;10.244;2023-03-14T03:20:51;4.28;;;2.45;;
77174;SDS011;66153;53.488;10.244;2023-03-14T03:23:17;6.32;;;2.38;;
77174;SDS011;66153;53.488;10.244;2023-03-14T03:25:47;5.75;;;2.20;;
77174;SDS011;66153;53.488;10.244;2023-03-14T03:28:13;7.30;;;2.40;;
77174;SDS011;66153;53.488;10.244;2023-03-14T03:30:39;5.30;;;2.42;;
77174;SDS011;66153;53.488;10.244;2023-03-14T03:33:06;7.53;;;2.60;;
77174;SDS011;66153;53.488;10.244;2023-03-14T03:35:32;6.80;;;2.47;;
77174;SDS011;66153;53.488;10.244;2023-03-14T03:37:58;3.95;;;2.42;;
77174;SDS011;66153;53.488;10.244;2023-03-14T03:40:24;4.85;;;2.35;;
77174;SDS011;66153;53.488;10.244;2023-03-14T03:42:50;6.47;;;2.00;;
77174;SDS011;66153;53.488;10.244;2023-03-14T03:45:16;4.15;;;2.05;;
77174;SDS011;66153;53.488;10.244;2023-03-14T03:47:42;4.55;;;2.40;;
77174;SDS011;66153;53.488;10.244;2023-03-14T03:50:08;4.50;;;2.03;;
77174;SDS011;66153;53.488;10.244;2023-03-14T03:52:35;5.32;;;2.55;;
77174;SDS011;66153;53.488;10.244;2023-03-14T03:55:01;5.32;;;2.30;;
77174;SDS011;66153;53.488;10.244;2023-03-14T03:57:27;5.68;;;2.20;;
77174;SDS011;66153;53.488;10.244;2023-03-14T03:59:53;3.90;;;2.10;;
77174;SDS011;66153;53.488;10.244;2023-03-14T04:02:19;3.20;;;2.30;;
77174;SDS011;66153;53.488;10.244;2023-03-14T04:04:45;4.25;;;2.50;;
77174;SDS011;66153;53.488;10.244;2023-03-14T04:07:11;4.55;;;2.30;;
77174;SDS011;66153;53.488;10.244;2023-03-14T04:09:38;4.97;;;2.20;;
77174;SDS011;66153;53.488;10.244;2023-03-14T04:12:04;8.40;;;2.58;;
77174;SDS011;66153;53.488;10.244;2023-03-14T04:14:31;6.97;;;2.50;;
77174;SDS011;66153;53.488;10.244;2023-03-14T04:16:57;7.15;;;2.60;;
77174;SDS011;66153;53.488;10.244;2023-03-14T04:19:23;6.13;;;2.60;;
77174;SDS011;66153;53.488;10.244;2023-03-14T04:21:49;7.93;;;3.00;;
77174;SDS011;66153;53.488;10.244;2023-03-14T04:24:15;6.57;;;2.47;;
77174;SDS011;66153;53.488;10.244;2023-03-14T04:26:41;6.90;;;2.60;;
77174;SDS011;66153;53.488;10.244;2023-03-14T04:29:07;6.47;;;2.60;;
77174;SDS011;66153;53.488;10.244;2023-03-14T04:31:33;5.47;;;2.58;;
77174;SDS011;66153;53.488;10.244;2023-03-14T04:33:59;7.07;;;2.45;;
77174;SDS011;66153;53.488;10.244;2023-03-14T04:36:25;4.65;;;2.45;;
77174;SDS011;66153;53.488;10.244;2023-03-14T04:38:51;5.30;;;1.95;;
77174;SDS011;66153;53.488;10.244;2023-03-14T04:41:17;8.07;;;2.92;;
77174;SDS011;66153;53.488;10.244;2023-03-14T04:43:43;7.18;;;2.67;;
77174;SDS011;66153;53.488;10.244;2023-03-14T04:46:09;4.20;;;2.45;;
77174;SDS011;66153;53.488;10.244;2023-03-14T04:48:35;7.28;;;2.80;;
77174;SDS011;66153;53.488;10.244;2023-03-14T04:53:28;6.43;;;2.35;;
77174;SDS011;66153;53.488;10.244;2023-03-14T04:55:56;4.55;;;2.55;;
77174;SDS011;66153;53.488;10.244;2023-03-14T04:58:22;4.57;;;2.45;;
77174;SDS011;66153;53.488;10.244;2023-03-14T05:00:49;5.75;;;3.13;;
77174;SDS011;66153;53.488;10.244;2023-03-14T05:03:15;5.47;;;2.33;;
77174;SDS011;66153;53.488;10.244;2023-03-14T05:05:42;5.63;;;2.55;;
77174;SDS011;66153;53.488;10.244;2023-03-14T05:08:08;5.88;;;2.63;;
77174;SDS011;66153;53.488;10.244;2023-03-14T05:10:34;5.25;;;2.50;;
77174;SDS011;66153;53.488;10.244;2023-03-14T05:13:00;6.57;;;2.22;;
77174;SDS011;66153;53.488;10.244;2023-03-14T05:15:26;4.68;;;2.22;;
77174;SDS011;66153;53.488;10.244;2023-03-14T05:17:52;3.53;;;1.92;;
77174;SDS011;66153;53.488;10.244;2023-03-14T05:20:21;3.50;;;1.90;;
77174;SDS011;66153;53.488;10.244;2023-03-14T05:22:47;2.85;;;2.03;;
77174;SDS011;66153;53.488;10.244;2023-03-14T05:25:14;4.10;;;2.15;;
77174;SDS011;66153;53.488;10.244;2023-03-14T05:27:40;3.83;;;2.30;;
77174;SDS011;66153;53.488;10.244;2023-03-14T05:30:06;4.65;;;2.35;;
77174;SDS011;66153;53.488;10.244;2023-03-14T05:32:32;4.65;;;2.38;;
77174;SDS011;66153;53.488;10.244;2023-03-14T05:34:58;7.18;;;2.40;;
77174;SDS011;66153;53.488;10.244;2023-03-14T05:37:25;5.00;;;2.50;;
77174;SDS011;66153;53.488;10.244;2023-03-14T05:39:51;4.88;;;2.53;;
77174;SDS011;66153;53.488;10.244;2023-03-14T05:42:17;9.50;;;2.67;;
77174;SDS011;66153;53.488;10.244;2023-03-14T05:44:43;8.57;;;2.80;;
77174;SDS011;66153;53.488;10.244;2023-03-14T05:47:09;5.70;;;2.60;;
77174;SDS011;66153;53.488;10.244;2023-03-14T05:49:35;4.70;;;2.55;;
77174;SDS011;66153;53.488;10.244;2023-03-14T05:52:01;6.82;;;2.40;;
77174;SDS011;66153;53.488;10.244;2023-03-14T05:54:27;4.55;;;2.47;;
77174;SDS011;66153;53.488;10.244;2023-03-14T05:56:53;3.15;;;2.30;;
77174;SDS011;66153;53.488;10.244;2023-03-14T05:59:19;4.95;;;2.50;;
77174;SDS011;66153;53.488;10.244;2023-03-14T06:01:45;3.72;;;2.20;;
77174;SDS011;66153;53.488;10.244;2023-03-14T06:04:11;5.75;;;2.42;;
77174;SDS011;66153;53.488;10.244;2023-03-14T06:06:38;6.57;;;2.33;;
77174;SDS011;66153;53.488;10.244;2023-03-14T06:09:04;5.57;;;2.50;;
77174;SDS011;66153;53.488;10.244;2023-03-14T06:11:30;5.70;;;2.47;;
77174;SDS011;66153;53.488;10.244;2023-03-14T06:13:56;6.20;;;2.33;;
77174;SDS011;66153;53.488;10.244;2023-03-14T06:16:22;4.15;;;2.40;;
77174;SDS011;66153;53.488;10.244;2023-03-14T06:18:48;4.47;;;2.40;;
77174;SDS011;66153;53.488;10.244;2023-03-14T06:21:14;4.30;;;2.78;;
77174;SDS011;66153;53.488;10.244;2023-03-14T06:23:41;4.00;;;2.22;;
77174;SDS011;66153;53.488;10.244;2023-03-14T06:26:07;6.50;;;2.50;;
77174;SDS011;66153;53.488;10.244;2023-03-14T06:28:33;4.05;;;2.25;;
77174;SDS011;66153;53.488;10.244;2023-03-14T06:31:00;6.18;;;2.70;;
77174;SDS011;66153;53.488;10.244;2023-03-14T06:33:26;5.22;;;2.50;;
77174;SDS011;66153;53.488;10.244;2023-03-14T06:35:52;6.63;;;2.80;;
77174;SDS011;66153;53.488;10.244;2023-03-14T06:38:18;5.07;;;2.30;;
77174;SDS011;66153;53.488;10.244;2023-03-14T06:40:44;4.10;;;2.35;;
77174;SDS011;66153;53.488;10.244;2023-03-14T06:43:12;6.68;;;2.42;;
77174;SDS011;66153;53.488;10.244;2023-03-14T06:45:38;6.00;;;2.70;;
77174;SDS011;66153;53.488;10.244;2023-03-14T06:48:04;5.10;;;2.17;;
77174;SDS011;66153;53.488;10.244;2023-03-14T06:50:30;3.70;;;2.40;;
77174;SDS011;66153;53.488;10.244;2023-03-14T06:52:56;2.60;;;1.98;;
77174;SDS011;66153;53.488;10.244;2023-03-14T06:55:26;4.32;;;2.17;;
77174;SDS011;66153;53.488;10.244;2023-03-14T06:57:58;3.42;;;1.88;;
77174;SDS011;66153;53.488;10.244;2023-03-14T07:00:24;3.95;;;2.28;;
77174;SDS011;66153;53.488;10.244;2023-03-14T07:02:50;6.63;;;2.45;;
77174;SDS011;66153;53.488;10.244;2023-03-14T07:05:16;3.90;;;2.10;;
77174;SDS011;66153;53.488;10.244;2023-03-14T07:07:42;4.07;;;2.03;;
77174;SDS011;66153;53.488;10.244;2023-03-14T07:10:08;2.53;;;1.67;;
77174;SDS011;66153;53.488;10.244;2023-03-14T07:12:34;3.78;;;2.05;;
77174;SDS011;66153;53.488;10.244;2023-03-14T07:15:01;3.35;;;2.13;;
77174;SDS011;66153;53.488;10.244;2023-03-14T07:17:27;4.43;;;1.70;;
77174;SDS011;66153;53.488;10.244;2023-03-14T07:19:53;4.72;;;1.92;;
77174;SDS011;66153;53.488;10.244;2023-03-14T07:22:19;4.60;;;2.10;;
77174;SDS011;66153;53.488;10.244;2023-03-14T07:24:45;4.20;;;2.08;;
77174;SDS011;66153;53.488;10.244;2023-03-14T07:27:11;4.78;;;1.90;;
77174;SDS011;66153;53.488;10.244;2023-03-14T07:29:37;3.05;;;1.58;;
77174;SDS011;66153;53.488;10.244;2023-03-14T07:32:03;3.60;;;1.63;;
77174;SDS011;66153;53.488;10.244;2023-03-14T07:34:29;4.05;;;1.30;;
77174;SDS011;66153;53.488;10.244;2023-03-14T07:36:55;2.45;;;1.30;;
77174;SDS011;66153;53.488;10.244;2023-03-14T07:39:21;4.30;;;1.52;;
77174;SDS011;66153;53.488;10.244;2023-03-14T07:42:06;3.42;;;1.23;;
77174;SDS011;66153;53.488;10.244;2023-03-14T07:44:32;3.05;;;1.38;;
77174;SDS011;66153;53.488;10.244;2023-03-14T07:46:59;4.13;;;1.20;;
77174;SDS011;66153;53.488;10.244;2023-03-14T07:49:25;3.60;;;1.00;;
77174;SDS011;66153;53.488;10.244;2023-03-14T07:51:51;2.35;;;1.30;;
77174;SDS011;66153;53.488;10.244;2023-03-14T07:54:17;2.58;;;1.33;;
77174;SDS011;66153;53.488;10.244;2023-03-14T07:56:43;2.83;;;1.33;;
77174;SDS011;66153;53.488;10.244;2023-03-14T07:59:09;1.73;;;1.35;;
77174;SDS011;66153;53.488;10.244;2023-03-14T08:01:35;4.22;;;1.70;;
77174;SDS011;66153;53.488;10.244;2023-03-14T08:04:02;5.15;;;2.00;;
77174;SDS011;66153;53.488;10.244;2023-03-14T08:06:28;3.28;;;1.50;;
77174;SDS011;66153;53.488;10.244;2023-03-14T08:08:54;4.05;;;2.05;;
77174;SDS011;66153;53.488;10.244;2023-03-14T08:11:20;4.95;;;2.40;;
77174;SDS011;66153;53.488;10.244;2023-03-14T08:13:46;6.18;;;2.30;;
77174;SDS011;66153;53.488;10.244;2023-03-14T08:16:15;4.97;;;2.42;;
77174;SDS011;66153;53.488;10.244;2023-03-14T08:18:42;3.55;;;2.00;;
77174;SDS011;66153;53.488;10.244;2023-03-14T08:21:08;4.18;;;2.38;;
77174;SDS011;66153;53.488;10.244;2023-03-14T08:23:34;2.33;;;1.52;;
77174;SDS011;66153;53.488;10.244;2023-03-14T08:26:00;8.45;;;2.38;;
77174;SDS011;66153;53.488;10.244;2023-03-14T08:28:26;3.55;;;2.25;;
77174;SDS011;66153;53.488;10.244;2023-03-14T08:30:58;3.53;;;2.33;;
77174;SDS011;66153;53.488;10.244;2023-03-14T08:33:24;2.97;;;2.47;;
77174;SDS011;66153;53.488;10.244;2023-03-14T08:35:53;5.40;;;3.08;;
77174;SDS011;66153;53.488;10.244;2023-03-14T08:38:20;5.35;;;2.88;;
77174;SDS011;66153;53.488;10.244;2023-03-14T08:40:46;5.05;;;2.67;;
77174;SDS011;66153;53.488;10.244;2023-03-14T08:43:12;5.38;;;3.00;;
77174;SDS011;66153;53.488;10.244;2023-03-14T08:45:38;6.15;;;2.80;;
77174;SDS011;66153;53.488;10.244;2023-03-14T08:48:04;5.78;;;3.10;;
77174;SDS011;66153;53.488;10.244;2023-03-14T08:50:30;7.10;;;3.10;;
77174;SDS011;66153;53.488;10.244;2023-03-14T08:52:56;5.50;;;2.90;;
77174;SDS011;66153;53.488;10.244;2023-03-14T08:55:25;5.78;;;2.97;;
77174;SDS011;66153;53.488;10.244;2023-03-14T08:57:52;3.92;;;3.20;;
77174;SDS011;66153;53.488;10.244;2023-03-14T09:00:18;4.93;;;3.20;;
77174;SDS011;66153;53.488;10.244;2023-03-14T09:02:45;7.18;;;3.40;;
77174;SDS011;66153;53.488;10.244;2023-03-14T09:05:11;6.43;;;3.22;;
77174;SDS011;66153;53.488;10.244;2023-03-14T09:07:38;6.10;;;3.33;;
77174;SDS011;66153;53.488;10.244;2023-03-14T09:10:05;5.97;;;3.25;;
77174;SDS011;66153;53.488;10.244;2023-03-14T09:12:31;4.97;;;2.80;;
77174;SDS011;66153;53.488;10.244;2023-03-14T09:14:57;6.03;;;3.30;;
77174;SDS011;66153;53.488;10.244;2023-03-14T09:17:23;4.95;;;3.50;;
77174;SDS011;66153;53.488;10.244;2023-03-14T09:19:49;4.30;;;2.78;;
77174;SDS011;66153;53.488;10.244;2023-03-14T09:22:15;4.50;;;2.67;;
77174;SDS011;66153;53.488;10.244;2023-03-14T09:24:42;6.13;;;3.72;;
77174;SDS011;66153;53.488;10.244;2023-03-14T09:27:08;4.85;;;2.65;;
77174;SDS011;66153;53.488;10.244;2023-03-14T09:29:34;4.57;;;2.45;;
77174;SDS011;66153;53.488;10.244;2023-03-14T09:32:00;8.77;;;2.80;;
77174;SDS011;66153;53.488;10.244;2023-03-14T09:34:26;3.72;;;2.42;;
77174;SDS011;66153;53.488;10.244;2023-03-14T09:36:52;4.07;;;2.35;;
77174;SDS011;66153;53.488;10.244;2023-03-14T09:39:19;6.20;;;2.60;;
77174;SDS011;66153;53.488;10.244;2023-03-14T09:41:48;3.97;;;2.33;;
77174;SDS011;66153;53.488;10.244;2023-03-14T09:44:32;5.03;;;2.70;;
77174;SDS011;66153;53.488;10.244;2023-03-14T09:47:00;5.18;;;2.40;;
77174;SDS011;66153;53.488;10.244;2023-03-14T09:49:31;4.32;;;2.30;;
77174;SDS011;66153;53.488;10.244;2023-03-14T09:51:59;3.47;;;2.17;;
77174;SDS011;66153;53.488;10.244;2023-03-14T09:54:30;5.40;;;2.13;;
77174;SDS011;66153;53.488;10.244;2023-03-14T09:56:57;3.25;;;2.10;;
77174;SDS011;66153;53.488;10.244;2023-03-14T09:59:23;4.75;;;2.40;;
77174;SDS011;66153;53.488;10.244;2023-03-14T10:01:49;5.80;;;2.88;;
77174;SDS011;66153;53.488;10.244;2023-03-14T10:04:17;4.72;;;2.33;;
77174;SDS011;66153;53.488;10.244;2023-03-14T10:06:44;5.15;;;1.92;;
77174;SDS011;66153;53.488;10.244;2023-03-14T10:09:14;4.93;;;2.20;;
77174;SDS011;66153;53.488;10.244;2023-03-14T10:11:43;4.00;;;2.38;;
77174;SDS011;66153;53.488;10.244;2023-03-14T10:14:10;4.28;;;2.33;;
77174;SDS011;66153;53.488;10.244;2023-03-14T10:16:43;4.60;;;2.30;;
77174;SDS011;66153;53.488;10.244;2023-03-14T10:19:13;3.28;;;2.17;;
77174;SDS011;66153;53.488;10.244;2023-03-14T10:22:00;5.53;;;1.77;;
77174;SDS011;66153;53.488;10.244;2023-03-14T10:24:31;1.75;;;1.08;;
77174;SDS011;66153;53.488;10.244;2023-03-14T10:26:59;1.73;;;0.70;;
77174;SDS011;66153;53.488;10.244;2023-03-14T10:29:32;1.27;;;0.60;;
77174;SDS011;66153;53.488;10.244;2023-03-14T10:32:03;1.95;;;0.70;;
77174;SDS011;66153;53.488;10.244;2023-03-14T10:34:31;0.70;;;0.50;;
77174;SDS011;66153;53.488;10.244;2023-03-14T10:36:58;1.20;;;0.60;;
77174;SDS011;66153;53.488;10.244;2023-03-14T10:42:13;0.85;;;0.47;;
77174;SDS011;66153;53.488;10.244;2023-03-14T10:44:36;1.77;;;0.52;;
77174;SDS011;66153;53.488;10.244;2023-03-14T10:47:04;1.73;;;0.47;;
77174;SDS011;66153;53.488;10.244;2023-03-14T10:52:00;1.27;;;0.70;;
77174;SDS011;66153;53.488;10.244;2023-03-14T10:54:29;0.60;;;0.50;;
77174;SDS011;66153;53.488;10.244;2023-03-14T10:56:57;1.20;;;0.70;;
77174;SDS011;66153;53.488;10.244;2023-03-14T10:59:37;0.98;;;0.52;;
77174;SDS011;66153;53.488;10.244;2023-03-14T11:04:37;0.88;;;0.50;;
77174;SDS011;66153;53.488;10.244;2023-03-14T11:09:42;0.80;;;0.60;;
77174;SDS011;66153;53.488;10.244;2023-03-14T11:12:27;0.63;;;0.40;;
77174;SDS011;66153;53.488;10.244;2023-03-14T11:15:05;0.90;;;0.43;;
77174;SDS011;66153;53.488;10.244;2023-03-14T11:17:38;0.60;;;0.40;;
77174;SDS011;66153;53.488;10.244;2023-03-14T11:22:39;0.60;;;0.22;;
77174;SDS011;66153;53.488;10.244;2023-03-14T11:27:42;0.68;;;0.20;;
77174;SDS011;66153;53.488;10.244;2023-03-14T11:35:19;0.73;;;0.40;;
77174;SDS011;66153;53.488;10.244;2023-03-14T11:37:52;0.88;;;0.10;;
77174;SDS011;66153;53.488;10.244;2023-03-14T11:40:21;0.60;;;0.30;;
77174;SDS011;66153;53.488;10.244;2023-03-14T11:42:49;0.40;;;0.20;;
77174;SDS011;66153;53.488;10.244;2023-03-14T11:45:18;0.60;;;0.30;;
77174;SDS011;66153;53.488;10.244;2023-03-14T11:47:45;0.63;;;0.32;;
77174;SDS011;66153;53.488;10.244;2023-03-14T11:50:16;2.35;;;0.60;;
77174;SDS011;66153;53.488;10.244;2023-03-14T11:52:51;2.05;;;0.30;;
77174;SDS011;66153;53.488;10.244;2023-03-14T11:55:32;1.42;;;0.47;;
77174;SDS011;66153;53.488;10.244;2023-03-14T11:58:00;0.40;;;0.20;;
77174;SDS011;66153;53.488;10.244;2023-03-14T12:00:27;1.08;;;0.57;;
77174;SDS011;66153;53.488;10.244;2023-03-14T12:02:55;0.98;;;0.30;;
77174;SDS011;66153;53.488;10.244;2023-03-14T12:10:29;1.48;;;0.28;;
77174;SDS011;66153;53.488;10.244;2023-03-14T12:12:56;2.25;;;0.40;;
77174;SDS011;66153;53.488;10.244;2023-03-14T12:15:23;1.23;;;0.50;;
77174;SDS011;66153;53.488;10.244;2023-03-14T12:17:55;3.63;;;0.40;;
77174;SDS011;66153;53.488;10.244;2023-03-14T12:20:22;1.13;;;0.50;;
77174;SDS011;66153;53.488;10.244;2023-03-14T12:22:50;2.60;;;0.40;;
77174;SDS011;66153;53.488;10.244;2023-03-14T12:25:20;2.00;;;0.30;;
77174;SDS011;66153;53.488;10.244;2023-03-14T12:27:48;3.97;;;0.63;;
77174;SDS011;66153;53.488;10.244;2023-03-14T12:30:36;2.03;;;0.30;;
77174;SDS011;66153;53.488;10.244;2023-03-14T12:38:25;1.45;;;0.40;;
77174;SDS011;66153;53.488;10.244;2023-03-14T12:43:39;2.97;;;0.57;;
77174;SDS011;66153;53.488;10.244;2023-03-14T12:46:19;3.78;;;0.52;;
77174;SDS011;66153;53.488;10.244;2023-03-14T12:48:55;1.95;;;0.60;;
77174;SDS011;66153;53.488;10.244;2023-03-14T12:51:38;6.38;;;0.50;;
77174;SDS011;66153;53.488;10.244;2023-03-14T12:59:29;3.63;;;0.77;;
77174;SDS011;66153;53.488;10.244;2023-03-14T13:01:58;4.60;;;1.05;;
77174;SDS011;66153;53.488;10.244;2023-03-14T13:04:35;1.50;;;0.52;;
77174;SDS011;66153;53.488;10.244;2023-03-14T13:07:02;4.07;;;0.95;;
77174;SDS011;66153;53.488;10.244;2023-03-14T13:12:02;3.03;;;0.60;;
77174;SDS011;66153;53.488;10.244;2023-03-14T13:14:29;4.45;;;0.70;;
77174;SDS011;66153;53.488;10.244;2023-03-14T13:16:59;5.25;;;0.68;;
77174;SDS011;66153;53.488;10.244;2023-03-14T13:19:26;6.00;;;0.63;;
77174;SDS011;66153;53.488;10.244;2023-03-14T13:21:56;3.67;;;0.50;;
77174;SDS011;66153;53.488;10.244;2023-03-14T13:24:25;4.88;;;0.90;;
77174;SDS011;66153;53.488;10.244;2023-03-14T13:26:53;4.78;;;0.80;;
77174;SDS011;66153;53.488;10.244;2023-03-14T13:31:49;4.85;;;0.90;;
77174;SDS011;66153;53.488;10.244;2023-03-14T13:34:15;3.33;;;1.20;;
77174;SDS011;66153;53.488;10.244;2023-03-14T13:36:42;4.43;;;0.90;;
77174;SDS011;66153;53.488;10.244;2023-03-14T13:39:18;7.65;;;1.38;;
77174;SDS011;66153;53.488;10.244;2023-03-14T13:41:47;2.70;;;0.90;;
77174;SDS011;66153;53.488;10.244;2023-03-14T13:44:15;7.00;;;0.82;;
77174;SDS011;66153;53.488;10.244;2023-03-14T13:46:42;4.22;;;1.27;;
77174;SDS011;66153;53.488;10.244;2023-03-14T13:49:12;5.68;;;1.40;;
77174;SDS011;66153;53.488;10.244;2023-03-14T13:51:42;2.72;;;0.77;;
77174;SDS011;66153;53.488;10.244;2023-03-14T13:54:15;5.50;;;0.70;;
77174;SDS011;66153;53.488;10.244;2023-03-14T13:56:42;7.88;;;1.88;;
77174;SDS011;66153;53.488;10.244;2023-03-14T13:59:30;8.98;;;2.33;;
77174;SDS011;66153;53.488;10.244;2023-03-14T14:01:55;8.68;;;1.60;;
77174;SDS011;66153;53.488;10.244;2023-03-14T14:06:56;4.80;;;0.80;;
77174;SDS011;66153;53.488;10.244;2023-03-14T14:09:45;4.15;;;0.70;;
77174;SDS011;66153;53.488;10.244;2023-03-14T14:12:13;4.50;;;1.02;;
77174;SDS011;66153;53.488;10.244;2023-03-14T14:14:42;5.22;;;1.00;;
77174;SDS011;66153;53.488;10.244;2023-03-14T14:17:13;5.63;;;0.55;;
77174;SDS011;66153;53.488;10.244;2023-03-14T14:19:40;4.80;;;0.80;;
77174;SDS011;66153;53.488;10.244;2023-03-14T14:22:08;5.40;;;0.80;;
77174;SDS011;66153;53.488;10.244;2023-03-14T14:24:35;8.55;;;0.70;;
77174;SDS011;66153;53.488;10.244;2023-03-14T14:27:08;2.75;;;1.08;;
77174;SDS011;66153;53.488;10.244;2023-03-14T14:29:34;8.25;;;0.95;;
77174;SDS011;66153;53.488;10.244;2023-03-14T14:34:46;6.57;;;1.15;;
77174;SDS011;66153;53.488;10.244;2023-03-14T14:37:19;3.85;;;0.93;;
77174;SDS011;66153;53.488;10.244;2023-03-14T14:39:46;6.13;;;1.08;;
77174;SDS011;66153;53.488;10.244;2023-03-14T14:42:13;6.45;;;1.15;;
77174;SDS011;66153;53.488;10.244;2023-03-14T14:44:41;6.90;;;0.80;;
77174;SDS011;66153;53.488;10.244;2023-03-14T14:47:11;4.50;;;1.17;;
77174;SDS011;66153;53.488;10.244;2023-03-14T14:49:38;5.82;;;0.88;;
77174;SDS011;66153;53.488;10.244;2023-03-14T14:52:08;4.90;;;1.33;;
77174;SDS011;66153;53.488;10.244;2023-03-14T14:54:40;3.15;;;0.63;;
77174;SDS011;66153;53.488;10.244;2023-03-14T15:00:08;4.28;;;1.00;;
77174;SDS011;66153;53.488;10.244;2023-03-14T15:02:39;3.17;;;0.70;;
77174;SDS011;66153;53.488;10.244;2023-03-14T15:05:16;2.17;;;0.55;;
77174;SDS011;66153;53.488;10.244;2023-03-14T15:07:43;3.70;;;0.75;;
77174;SDS011;66153;53.488;10.244;2023-03-14T15:10:10;3.08;;;0.40;;
77174;SDS011;66153;53.488;10.244;2023-03-14T15:12:36;2.53;;;0.40;;
77174;SDS011;66153;53.488;10.244;2023-03-14T15:15:02;2.45;;;0.57;;
77174;SDS011;66153;53.488;10.244;2023-03-14T15:17:28;3.63;;;0.60;;
77174;SDS011;66153;53.488;10.244;2023-03-14T15:19:54;2.20;;;0.50;;
77174;SDS011;66153;53.488;10.244;2023-03-14T15:22:23;5.88;;;0.60;;
77174;SDS011;66153;53.488;10.244;2023-03-14T15:24:49;3.25;;;0.57;;
77174;SDS011;66153;53.488;10.244;2023-03-14T15:27:15;2.67;;;0.52;;
77174;SDS011;66153;53.488;10.244;2023-03-14T15:29:42;3.03;;;0.82;;
77174;SDS011;66153;53.488;10.244;2023-03-14T15:32:13;5.82;;;1.30;;
77174;SDS011;66153;53.488;10.244;2023-03-14T15:34:39;5.30;;;1.15;;
77174;SDS011;66153;53.488;10.244;2023-03-14T15:37:08;3.08;;;0.77;;
77174;SDS011;66153;53.488;10.244;2023-03-14T15:39:34;4.18;;;0.73;;
77174;SDS011;66153;53.488;10.244;2023-03-14T15:42:00;3.53;;;0.80;;
77174;SDS011;66153;53.488;10.244;2023-03-14T15:44:26;5.82;;;0.60;;
77174;SDS011;66153;53.488;10.244;2023-03-14T15:46:52;3.58;;;0.43;;
77174;SDS011;66153;53.488;10.244;2023-03-14T15:49:18;2.75;;;1.00;;